Time;durP1;ratioP1;P1;durP2;ratioP2;P2;SDS_P1;SDS_P2;PMS_P1;PMS_P2;Temp;Humidity;BMP_temperature;BMP_pressure;BME280_temperature;BME280_humidity;BME280_pressure;Samples;Min_cycle;Max_cycle;Signal;HPM_P1;HPM_P2
2023/04/08 00:01:27;;;;;;;48.50;24.17;;;4.40;99.90;;;2.68;100.00;100341.47;10493617;27;97640;-87
2023/04/08 00:06:31;;;;;;;41.90;20.77;;;4.50;99.90;;;2.67;100.00;100338.00;10468492;27;98649;-87
2023/04/08 00:11:33;;;;;;;41.43;20.50;;;4.50;99.90;;;2.67;100.00;100342.41;10479681;27;97349;-87
2023/04/08 00:16:37;;;;;;;33.80;16.60;;;4.50;99.90;;;2.69;100.00;100336.09;10496343;27;96675;-87
2023/04/08 00:21:40;;;;;;;29.30;15.07;;;4.50;99.90;;;2.70;100.00;100331.69;10484787;27;96903;-86
2023/04/08 00:26:43;;;;;;;28.63;14.80;;;4.50;99.90;;;2.73;100.00;100326.22;10504219;27;96547;-85
2023/04/08 00:31:46;;;;;;;24.67;13.43;;;4.50;99.90;;;2.72;100.00;100345.53;10497394;27;96655;-85
2023/04/08 00:36:49;;;;;;;37.10;17.53;;;4.50;99.90;;;2.73;100.00;100336.72;10469782;27;97614;-85
2023/04/08 00:41:52;;;;;;;38.23;18.03;;;4.50;99.90;;;2.77;100.00;100350.44;10505139;27;96564;-85
2023/04/08 00:46:55;;;;;;;29.47;16.30;;;4.60;99.90;;;2.76;100.00;100346.13;10509274;27;97590;-85
2023/04/08 00:51:59;;;;;;;27.30;13.57;;;4.50;99.90;;;2.76;100.00;100346.13;10470526;27;96701;-84
2023/04/08 00:57:04;;;;;;;29.97;16.47;;;4.60;99.90;;;2.69;100.00;100351.81;10495446;27;96730;-85
2023/04/08 01:02:22;;;;;;;32.37;16.93;;;4.50;99.90;;;2.65;100.00;100350.41;10478299;27;96611;-85
2023/04/08 01:07:39;;;;;;;32.50;16.43;;;4.50;99.90;;;2.64;100.00;100353.97;10492403;27;97079;-85
2023/04/08 01:12:59;;;;;;;31.13;15.87;;;4.40;99.90;;;2.62;100.00;100350.63;10487309;27;96676;-84
2023/04/08 01:18:08;;;;;;;40.97;20.73;;;4.40;99.90;;;2.63;100.00;100348.81;10474071;27;96651;-87
2023/04/08 01:24:10;;;;;;;36.20;17.67;;;4.40;99.90;;;2.63;100.00;100340.97;10506778;27;96517;-85
2023/04/08 01:29:14;;;;;;;37.63;18.73;;;4.40;99.90;;;2.58;100.00;100343.94;10481572;27;96704;-86
2023/04/08 01:34:20;;;;;;;30.27;16.27;;;4.40;99.90;;;2.57;100.00;100344.03;10474155;27;96680;-86
2023/04/08 01:39:25;;;;;;;26.77;16.37;;;4.40;99.90;;;2.52;100.00;100346.16;10483906;27;96530;-87
2023/04/08 01:44:29;;;;;;;33.03;16.50;;;4.40;99.90;;;2.54;100.00;100344.28;10500405;27;97223;-87
2023/04/08 01:49:33;;;;;;;30.60;17.00;;;4.30;99.90;;;2.53;100.00;100350.47;10497351;27;96576;-87
2023/04/08 01:54:37;;;;;;;28.47;13.97;;;4.30;99.90;;;2.49;100.00;100349.00;10469160;27;96811;-87
2023/04/08 01:59:41;;;;;;;28.67;16.13;;;4.30;99.90;;;2.45;100.00;100347.56;10494720;27;97506;-86
2023/04/08 02:04:44;;;;;;;32.50;14.93;;;4.30;99.90;;;2.44;100.00;100341.47;10482562;27;96712;-86
2023/04/08 02:09:47;;;;;;;23.03;13.70;;;4.30;99.90;;;2.42;100.00;100346.84;10517604;27;96811;-86
2023/04/08 02:14:50;;;;;;;27.40;14.17;;;4.20;99.90;;;2.36;100.00;100338.59;10507559;27;96539;-87
2023/04/08 02:20:16;;;;;;;31.90;15.27;;;4.20;99.90;;;2.38;100.00;100344.53;10479967;27;97180;-86
2023/04/08 02:25:24;;;;;;;26.17;13.47;;;4.20;99.90;;;2.36;100.00;100338.59;10488318;27;96697;-87
2023/04/08 02:30:28;;;;;;;29.27;14.83;;;4.20;99.90;;;2.32;100.00;100340.59;10466274;27;97367;-86
2023/04/08 02:35:32;;;;;;;27.57;15.03;;;4.10;99.90;;;2.34;100.00;100338.72;10494862;27;96611;-88
2023/04/08 02:40:36;;;;;;;27.77;14.90;;;4.10;99.90;;;2.38;100.00;100339.31;10524498;27;96620;-87
2023/04/08 02:45:43;;;;;;;29.87;14.23;;;4.20;99.90;;;2.42;100.00;100338.97;10494702;27;96642;-87
2023/04/08 02:50:46;;;;;;;31.37;15.30;;;4.20;99.90;;;2.42;100.00;100341.59;10499531;27;96600;-87
2023/04/08 02:55:49;;;;;;;25.40;12.57;;;4.20;99.90;;;2.43;100.00;100339.81;10513806;27;98314;-87
2023/04/08 03:00:52;;;;;;;30.27;14.47;;;4.20;99.90;;;2.44;100.00;100343.25;10498695;27;97358;-86
2023/04/08 03:05:57;;;;;;;33.50;16.57;;;4.20;99.90;;;2.44;100.00;100348.50;10469006;27;96539;-86
2023/04/08 03:11:00;;;;;;;30.53;15.30;;;4.20;99.90;;;2.46;100.00;100349.22;10485677;27;96641;-86
2023/04/08 03:16:05;;;;;;;38.50;18.47;;;4.30;99.90;;;2.38;100.00;100348.00;10469789;27;96649;-88
2023/04/08 03:21:08;;;;;;;35.93;17.63;;;4.30;99.90;;;2.42;100.00;100357.34;10493069;27;97673;-88
2023/04/08 03:26:11;;;;;;;34.90;16.87;;;4.30;99.90;;;2.43;100.00;100355.53;10521987;27;96632;-88
2023/04/08 03:31:15;;;;;;;27.87;15.27;;;4.30;99.90;;;2.40;100.00;100359.25;10501860;27;97254;-89
2023/04/08 03:36:18;;;;;;;29.60;15.27;;;4.30;99.90;;;2.44;100.00;100359.00;10518121;27;96658;-89
2023/04/08 03:41:21;;;;;;;40.97;21.07;;;4.20;99.90;;;2.44;100.00;100361.63;10512011;27;97446;-88
2023/04/08 03:46:24;;;;;;;28.77;14.33;;;4.30;99.90;;;2.48;100.00;100363.09;10505535;27;96525;-89
2023/04/08 03:51:27;;;;;;;28.47;13.63;;;4.30;99.90;;;2.49;100.00;100359.50;10502502;27;96591;-88
2023/04/08 03:56:30;;;;;;;24.13;12.73;;;4.30;99.90;;;2.49;100.00;100365.59;10496679;27;97500;-88
2023/04/08 04:01:33;;;;;;;27.70;14.13;;;4.30;99.90;;;2.52;100.00;100369.75;10501015;27;97378;-87
2023/04/08 04:06:36;;;;;;;32.30;15.57;;;4.30;99.90;;;2.51;100.00;100379.41;10495595;27;96588;-87
2023/04/08 04:11:39;;;;;;;35.10;16.13;;;4.40;99.90;;;2.53;100.00;100379.34;10495527;27;96832;-87
2023/04/08 04:16:42;;;;;;;30.53;15.50;;;4.30;99.90;;;2.53;100.00;100380.16;10468092;27;96542;-87
2023/04/08 04:21:46;;;;;;;29.30;13.00;;;4.40;99.90;;;2.48;100.00;100376.19;10485000;27;98409;-86
2023/04/08 04:26:49;;;;;;;27.60;13.23;;;4.40;99.90;;;2.54;100.00;100392.31;10509735;27;96745;-86
2023/04/08 04:31:52;;;;;;;28.07;14.10;;;4.30;99.90;;;2.54;100.00;100391.50;10494694;27;97570;-86
2023/04/08 04:36:55;;;;;;;25.27;13.60;;;4.40;99.90;;;2.53;100.00;100389.81;10501998;27;98687;-86
2023/04/08 04:41:58;;;;;;;35.47;16.87;;;4.30;99.90;;;2.55;100.00;100391.38;10480042;27;97017;-87
2023/04/08 04:47:01;;;;;;;31.37;15.33;;;4.40;99.90;;;2.55;100.00;100395.78;10489178;27;96542;-86
2023/04/08 04:52:04;;;;;;;31.17;15.43;;;4.40;99.90;;;2.58;100.00;100396.41;10458542;27;97625;-86
2023/04/08 04:57:07;;;;;;;33.07;17.10;;;4.40;99.90;;;2.57;100.00;100392.09;10488043;27;96691;-86
2023/04/08 05:02:10;;;;;;;33.37;16.77;;;4.40;99.90;;;2.59;100.00;100398.09;10496844;27;97723;-85
2023/04/08 05:07:14;;;;;;;35.53;17.37;;;4.40;99.90;;;2.62;100.00;100407.50;10500461;27;98635;-85
2023/04/08 05:12:19;;;;;;;36.93;18.30;;;4.40;99.90;;;2.65;100.00;100407.28;10496913;27;97446;-85
2023/04/08 05:17:22;;;;;;;41.77;21.73;;;4.50;99.90;;;2.57;100.00;100405.22;10506054;27;99610;-85
2023/04/08 05:22:25;;;;;;;38.93;21.87;;;4.40;99.90;;;2.56;100.00;100415.81;10508048;27;96728;-86
2023/04/08 05:27:28;;;;;;;32.83;17.17;;;4.40;99.90;;;2.62;100.00;100418.84;10489437;27;96813;-86
2023/04/08 05:32:31;;;;;;;37.80;18.57;;;4.40;99.90;;;2.65;100.00;100429.13;10445603;27;97652;-86
2023/04/08 05:37:34;;;;;;;32.43;16.37;;;4.50;99.90;;;2.69;100.00;100419.22;10460407;27;96600;-86
2023/04/08 05:42:38;;;;;;;43.33;20.70;;;4.50;99.90;;;2.71;100.00;100433.09;10457440;27;96700;-86
2023/04/08 05:47:41;;;;;;;47.57;22.57;;;4.50;99.90;;;2.76;100.00;100436.22;10435299;27;97482;-86
2023/04/08 05:52:44;;;;;;;42.43;22.37;;;4.60;99.90;;;2.75;100.00;100431.06;10462325;27;96503;-84
2023/04/08 05:57:47;;;;;;;42.60;20.70;;;4.60;99.90;;;2.76;100.00;100433.59;10434230;27;98675;-84
2023/04/08 06:02:50;;;;;;;50.07;23.23;;;4.60;99.90;;;2.80;100.00;100432.41;10419674;27;96930;-86
2023/04/08 06:07:53;;;;;;;42.20;21.73;;;4.60;99.90;;;2.81;100.00;100433.22;10445519;27;96566;-84
2023/04/08 06:12:56;;;;;;;42.73;20.47;;;4.60;99.90;;;2.81;100.00;100428.81;10461071;27;98433;-84
2023/04/08 06:17:59;;;;;;;46.77;25.17;;;4.60;99.90;;;2.81;100.00;100439.31;10439688;27;96805;-85
2023/04/08 06:23:02;;;;;;;47.77;24.13;;;4.60;99.90;;;2.88;100.00;100445.81;10454977;27;97499;-84
2023/04/08 06:28:06;;;;;;;34.13;17.57;;;4.70;99.90;;;2.89;100.00;100447.47;10458697;27;97019;-84
2023/04/08 06:33:09;;;;;;;31.70;18.23;;;4.70;99.90;;;2.89;100.00;100450.09;10441933;27;97140;-84
2023/04/08 06:38:27;;;;;;;31.33;16.63;;;4.70;99.90;;;2.91;100.00;100456.06;10444070;27;97553;-86
2023/04/08 06:43:31;;;;;;;37.17;20.20;;;4.70;99.90;;;2.88;100.00;100465.97;10469852;27;98447;-84
2023/04/08 06:48:36;;;;;;;31.73;18.10;;;4.70;99.90;;;2.86;100.00;100473.09;10441522;27;98105;-84
2023/04/08 06:53:40;;;;;;;39.43;19.97;;;4.70;99.90;;;2.90;100.00;100464.91;10449639;27;96588;-89
2023/04/08 06:58:43;;;;;;;33.00;18.47;;;4.70;99.90;;;2.95;100.00;100473.28;10463161;27;96702;-86
2023/04/08 07:03:46;;;;;;;289.20;191.17;;;4.70;99.90;;;2.94;100.00;100470.78;10465779;27;96785;-86
2023/04/08 07:08:49;;;;;;;73.00;46.90;;;4.70;99.90;;;2.97;100.00;100482.84;10459045;27;96703;-86
2023/04/08 07:13:52;;;;;;;36.80;20.03;;;4.70;99.90;;;2.97;100.00;100478.41;10470194;27;96506;-86
2023/04/08 07:18:55;;;;;;;35.87;21.00;;;4.80;99.90;;;3.02;100.00;100483.34;10436620;27;96952;-87
2023/04/08 07:23:58;;;;;;;28.57;16.53;;;4.80;99.90;;;3.02;100.00;100492.06;10439850;27;96904;-87
2023/04/08 07:29:02;;;;;;;33.90;19.40;;;4.80;99.90;;;3.04;100.00;100497.19;10460550;27;99815;-87
2023/04/08 07:34:05;;;;;;;31.23;17.07;;;4.80;99.90;;;3.04;100.00;100502.44;10459979;27;96973;-87
2023/04/08 07:39:08;;;;;;;31.97;17.53;;;4.80;99.90;;;3.04;100.00;100502.44;10460595;27;97781;-87
2023/04/08 07:44:11;;;;;;;33.07;18.87;;;4.80;99.90;;;3.06;100.00;100503.16;10456222;27;96606;-87
2023/04/08 07:49:14;;;;;;;30.43;17.63;;;4.80;99.90;;;3.10;100.00;100518.56;10456666;27;96616;-84
2023/04/08 07:54:17;;;;;;;37.23;19.37;;;4.90;99.90;;;3.08;100.00;100527.53;10484963;27;98155;-85
2023/04/08 07:59:20;;;;;;;33.87;18.43;;;4.90;99.90;;;3.05;100.00;100533.81;10456450;27;97662;-85
2023/04/08 08:04:24;;;;;;;33.27;19.93;;;4.90;99.90;;;3.09;100.00;100542.31;10449386;27;98424;-85
2023/04/08 08:09:28;;;;;;;31.93;18.70;;;4.90;99.90;;;3.14;100.00;100538.41;10471154;27;98150;-86
2023/04/08 08:14:33;;;;;;;30.80;16.80;;;4.90;99.90;;;3.18;100.00;100536.41;10458367;27;98421;-85
2023/04/08 08:19:36;;;;;;;25.83;14.10;;;5.00;99.90;;;3.27;100.00;100535.72;10461703;27;97037;-84
2023/04/08 08:24:40;;;;;;;29.10;15.77;;;5.00;99.90;;;3.37;100.00;100535.91;10470724;27;98656;-84
2023/04/08 08:29:43;;;;;;;31.00;18.27;;;5.20;99.90;;;3.37;100.00;100530.66;10454601;27;98356;-84
2023/04/08 08:34:46;;;;;;;26.93;15.40;;;5.20;99.90;;;3.41;100.00;100535.53;10469639;27;96914;-84
2023/04/08 08:39:49;;;;;;;31.23;17.53;;;5.20;99.90;;;3.49;100.00;100538.44;10456364;27;96580;-84
2023/04/08 08:44:53;;;;;;;27.63;15.50;;;5.30;99.90;;;3.55;100.00;100541.56;10479139;27;98959;-88
2023/04/08 08:49:56;;;;;;;26.67;15.20;;;5.40;99.90;;;3.59;100.00;100554.34;10443663;27;97530;-84
2023/04/08 08:55:00;;;;;;;24.33;13.70;;;5.40;99.90;;;3.60;100.00;100553.41;10464137;27;98187;-85
2023/04/08 09:00:04;;;;;;;28.40;16.30;;;5.40;99.90;;;3.51;100.00;100548.00;10488135;27;96983;-83
2023/04/08 09:05:07;;;;;;;26.37;15.13;;;5.40;99.90;;;3.47;100.00;100568.41;10449595;27;98121;-85
2023/04/08 09:10:10;;;;;;;25.13;15.67;;;5.30;99.90;;;3.45;100.00;100576.41;10457827;27;98866;-85
2023/04/08 09:15:13;;;;;;;29.50;16.23;;;5.30;99.90;;;3.49;100.00;100577.03;10450933;27;96642;-85
2023/04/08 09:20:16;;;;;;;37.50;21.13;;;5.30;99.90;;;3.53;100.00;100583.72;10468838;27;98274;-81
2023/04/08 09:25:28;;;;;;;29.73;17.47;;;5.30;99.90;;;3.65;100.00;100579.34;10474676;27;98028;-81
2023/04/08 09:30:32;;;;;;;23.63;14.80;;;5.40;99.90;;;3.60;100.00;100584.09;10488898;27;96754;-82
2023/04/08 09:35:35;;;;;;;24.43;15.30;;;5.40;99.90;;;3.65;100.00;100588.06;10478376;27;97791;-82
2023/04/08 09:40:40;;;;;;;27.07;15.67;;;5.50;99.90;;;3.70;100.00;100587.72;10473682;27;96590;-82
2023/04/08 09:45:45;;;;;;;22.50;14.97;;;5.60;99.90;;;3.65;100.00;100593.31;10488845;27;96629;-82
2023/04/08 09:50:51;;;;;;;26.40;15.97;;;5.50;99.90;;;3.68;100.00;100597.53;10479011;27;96869;-81
2023/04/08 09:55:57;;;;;;;21.37;14.80;;;5.50;99.90;;;3.79;100.00;100600.19;10474166;27;97801;-81
2023/04/08 10:01:01;;;;;;;19.67;12.30;;;5.60;99.90;;;3.81;100.00;100595.66;10467610;27;98427;-82
2023/04/08 10:06:07;;;;;;;20.17;13.57;;;5.60;99.90;;;3.85;100.00;100597.09;10484002;27;96475;-81
2023/04/08 10:11:10;;;;;;;23.57;13.87;;;5.70;99.90;;;4.06;100.00;100602.53;10475896;27;98554;-80
2023/04/08 10:16:21;;;;;;;19.60;13.00;;;5.90;99.90;;;4.21;100.00;100605.78;10489210;27;99047;-80
2023/04/08 10:21:42;;;;;;;21.38;12.75;;;6.00;99.90;;;4.25;100.00;100599.31;10516065;27;98668;-81
2023/04/08 10:26:47;;;;;;;21.20;13.57;;;6.10;99.90;;;4.25;100.00;100604.59;10478938;27;97573;-81
2023/04/08 10:31:50;;;;;;;25.00;13.83;;;6.10;99.90;;;4.34;100.00;100598.63;10489563;27;97408;-81
2023/04/08 10:36:57;;;;;;;21.97;12.53;;;6.20;99.90;;;4.47;100.00;100591.47;10462254;27;96611;-82
2023/04/08 10:42:01;;;;;;;20.93;11.70;;;6.40;99.90;;;4.60;100.00;100593.97;10462103;27;96807;-82
2023/04/08 10:47:04;;;;;;;18.80;11.73;;;6.50;99.90;;;4.70;100.00;100586.19;10498446;27;101212;-83
2023/04/08 10:52:08;;;;;;;22.30;12.13;;;6.60;99.90;;;4.74;99.49;100590.28;10470724;27;98323;-83
2023/04/08 10:57:11;;;;;;;21.70;12.10;;;6.60;99.90;;;4.63;97.62;100595.53;10485508;27;96788;-83
2023/04/08 11:02:15;;;;;;;31.33;14.83;;;6.60;99.90;;;4.59;97.33;100596.72;10548161;27;96405;-83
2023/04/08 11:07:20;;;;;;;15.87;10.13;;;6.40;99.90;;;4.73;98.55;100591.22;10528318;27;96520;-84
2023/04/08 11:12:23;;;;;;;20.07;12.73;;;6.50;99.90;;;4.87;98.97;100596.25;10470426;27;96638;-84
2023/04/08 11:17:26;;;;;;;13.10;9.37;;;6.60;99.90;;;4.99;98.95;100584.72;10478121;27;96457;-83
2023/04/08 11:22:32;;;;;;;17.67;11.83;;;6.80;99.90;;;5.00;97.92;100591.66;10513861;27;97890;-84
2023/04/08 11:27:36;;;;;;;15.27;10.00;;;6.80;99.90;;;4.98;97.40;100585.69;10510824;27;96509;-83
2023/04/08 11:32:40;;;;;;;18.43;12.67;;;6.80;99.90;;;4.95;96.31;100590.34;10510567;27;96824;-83
2023/04/08 11:37:44;;;;;;;17.80;11.30;;;6.80;99.90;;;4.95;96.24;100593.00;10505146;27;98690;-83
2023/04/08 11:42:47;;;;;;;18.13;12.30;;;6.80;99.90;;;4.90;95.85;100595.97;10492601;27;97330;-84
2023/04/08 11:47:50;;;;;;;22.57;13.67;;;6.70;99.90;;;4.79;95.09;100602.09;10479590;27;96602;-83
2023/04/08 11:52:54;;;;;;;21.37;14.33;;;6.60;99.90;;;4.71;94.42;100598.41;10470731;27;96634;-83
2023/04/08 11:58:03;;;;;;;21.47;15.17;;;6.60;99.90;;;4.77;95.21;100592.66;10509173;27;96670;-83
2023/04/08 12:03:07;;;;;;;16.33;11.43;;;6.50;99.90;;;5.10;96.66;100592.63;10500568;27;96423;-84
2023/04/08 12:08:10;;;;;;;18.17;12.30;;;6.80;99.90;;;5.41;97.41;100595.41;10468853;27;96728;-83
2023/04/08 12:13:13;;;;;;;16.10;11.50;;;7.10;99.90;;;5.47;92.64;100581.72;10486317;27;97438;-83
2023/04/08 12:18:16;;;;;;;25.00;15.10;;;7.30;99.90;;;5.55;93.02;100592.47;10469846;27;96387;-83
2023/04/08 12:23:19;;;;;;;34.03;17.27;;;7.40;99.90;;;5.47;91.95;100589.63;10506607;27;97410;-83
2023/04/08 12:28:22;;;;;;;30.73;15.97;;;7.30;99.90;;;5.31;91.31;100581.28;10508424;27;96503;-83
2023/04/08 12:33:25;;;;;;;25.37;14.80;;;7.10;99.90;;;5.24;92.77;100590.66;10485325;27;98330;-83
2023/04/08 12:38:28;;;;;;;27.60;14.63;;;7.00;99.90;;;5.28;93.54;100592.09;10503465;27;96464;-83
2023/04/08 12:43:31;;;;;;;16.00;10.63;;;7.00;99.90;;;5.36;93.42;100585.22;10499433;27;96683;-84
2023/04/08 12:48:35;;;;;;;16.13;10.50;;;7.10;99.90;;;5.33;91.27;100582.81;10509494;27;97390;-84
2023/04/08 12:53:38;;;;;;;19.00;12.20;;;7.10;99.90;;;5.32;91.88;100580.31;10500454;27;97384;-84
2023/04/08 12:58:41;;;;;;;25.97;16.33;;;7.10;99.90;;;5.34;92.09;100586.34;10484528;27;96602;-84
2023/04/08 13:03:46;;;;;;;14.43;10.67;;;7.10;99.90;;;5.23;89.55;100584.56;10490320;27;97080;-84
2023/04/08 13:08:49;;;;;;;24.10;13.63;;;7.10;99.90;;;5.13;88.88;100580.97;10482836;27;97217;-84
2023/04/08 13:13:53;;;;;;;19.50;12.63;;;7.00;99.90;;;5.15;90.01;100581.69;10482234;27;96507;-84
2023/04/08 13:18:56;;;;;;;18.83;11.93;;;7.00;99.90;;;5.20;89.41;100583.97;10480974;27;97140;-84
2023/04/08 13:23:59;;;;;;;15.30;10.50;;;7.00;99.90;;;5.33;90.29;100584.63;10500851;27;96447;-84
2023/04/08 13:29:02;;;;;;;14.13;9.90;;;7.10;99.90;;;5.51;89.23;100580.50;10467179;27;96563;-84
2023/04/08 13:34:06;;;;;;;12.63;8.93;;;7.30;99.90;;;5.59;88.88;100570.16;10501428;27;96357;-84
2023/04/08 13:39:09;;;;;;;13.17;9.57;;;7.40;99.90;;;5.78;88.66;100568.63;10472493;27;96552;-84
2023/04/08 13:44:12;;;;;;;13.87;9.93;;;7.60;99.90;;;5.82;86.80;100575.34;10513838;27;96738;-84
2023/04/08 13:49:15;;;;;;;11.00;7.73;;;7.60;99.90;;;5.91;88.73;100566.69;10484584;27;96582;-84
2023/04/08 13:54:18;;;;;;;13.87;8.70;;;7.70;99.90;;;5.94;88.71;100569.06;10500113;27;96377;-84
2023/04/08 13:59:21;;;;;;;19.33;12.60;;;7.80;99.90;;;5.97;87.34;100571.44;10504841;27;98327;-84
2023/04/08 14:04:24;;;;;;;15.43;11.23;;;7.80;99.90;;;5.86;83.96;100567.03;10522331;27;96505;-84
2023/04/08 14:09:27;;;;;;;13.43;9.57;;;7.70;99.90;;;5.92;85.27;100568.34;10480795;27;98504;-84
2023/04/08 14:14:30;;;;;;;15.80;9.50;;;7.70;99.90;;;6.00;86.68;100567.69;10499423;27;96640;-84
2023/04/08 14:19:33;;;;;;;14.47;9.97;;;7.80;99.90;;;6.05;86.11;100563.69;10497154;27;98124;-84
2023/04/08 14:24:36;;;;;;;13.77;10.30;;;7.90;99.90;;;6.19;87.53;100570.47;10481225;27;96499;-84
2023/04/08 14:29:40;;;;;;;13.97;9.30;;;8.00;99.90;;;6.16;85.85;100568.91;10485330;27;97342;-84
2023/04/08 14:34:43;;;;;;;34.00;23.90;;;8.00;99.90;;;6.13;85.61;100571.81;10487582;27;96398;-84
2023/04/08 14:39:46;;;;;;;14.33;9.70;;;7.90;99.90;;;6.00;83.83;100579.09;10487382;27;96600;-84
2023/04/08 14:44:49;;;;;;;10.47;7.50;;;7.80;99.90;;;5.95;82.52;100573.38;10494391;27;96737;-84
2023/04/08 14:49:52;;;;;;;10.40;7.27;;;7.80;99.90;;;5.89;81.69;100577.34;10487862;27;98123;-84
2023/04/08 14:54:55;;;;;;;9.87;7.43;;;7.70;99.90;;;5.69;79.29;100566.75;10486192;27;96511;-83
2023/04/08 14:59:58;;;;;;;12.53;8.50;;;7.60;99.90;;;5.60;79.57;100568.38;10504058;27;96861;-83
2023/04/08 15:05:01;;;;;;;13.67;10.43;;;7.50;99.90;;;5.64;81.98;100575.91;10483367;27;97576;-83
2023/04/08 15:10:05;;;;;;;11.13;8.00;;;7.50;99.90;;;5.58;82.37;100573.78;10529626;27;96545;-83
2023/04/08 15:15:08;;;;;;;13.10;9.17;;;7.40;99.90;;;5.49;81.87;100574.53;10512445;27;96579;-82
2023/04/08 15:20:12;;;;;;;13.73;9.17;;;7.40;99.90;;;5.36;83.16;100579.13;10493560;27;96577;-83
2023/04/08 15:25:15;;;;;;;14.07;10.57;;;7.20;99.90;;;5.27;84.71;100580.69;10469810;27;96443;-84
2023/04/08 15:30:23;;;;;;;13.00;9.50;;;7.10;99.90;;;5.18;86.64;100580.63;10526076;27;96527;-84
2023/04/08 15:35:26;;;;;;;19.30;12.30;;;7.00;99.90;;;5.02;87.83;100581.00;10531342;27;96452;-83
2023/04/08 15:40:33;;;;;;;14.20;9.80;;;6.90;99.90;;;4.95;88.86;100591.19;10484626;27;97579;-83
2023/04/08 15:45:41;;;;;;;14.33;9.73;;;6.80;99.90;;;4.83;89.19;100594.81;10513636;27;96671;-83
2023/04/08 15:50:44;;;;;;;11.50;8.70;;;6.70;99.90;;;4.69;89.82;100598.53;10500215;27;98105;-83
2023/04/08 15:55:49;;;;;;;13.67;7.27;;;6.50;99.90;;;4.56;90.73;100600.44;10505090;27;96498;-82
2023/04/08 16:00:54;;;;;;;10.00;7.37;;;6.40;99.90;;;4.45;91.60;100619.69;10508625;27;96838;-82
2023/04/08 16:05:57;;;;;;;37.03;18.03;;;6.30;99.90;;;4.38;92.35;100610.59;10511077;27;96650;-82
2023/04/08 16:11:03;;;;;;;20.30;11.00;;;6.20;99.90;;;4.38;93.03;100615.88;10485321;27;96589;-82
2023/04/08 16:16:07;;;;;;;15.70;9.57;;;6.20;99.90;;;4.38;93.53;100620.25;10453789;27;97493;-82
2023/04/08 16:21:11;;;;;;;12.80;9.00;;;6.20;99.90;;;4.38;94.42;100615.88;10512537;27;96651;-82
2023/04/08 16:26:14;;;;;;;13.63;8.50;;;6.20;99.90;;;4.39;94.87;100622.81;10511287;27;96639;-82
2023/04/08 16:31:17;;;;;;;11.83;7.53;;;6.20;99.90;;;4.38;95.22;100631.66;10473655;27;96625;-83
2023/04/08 16:36:21;;;;;;;10.23;6.93;;;6.20;99.90;;;4.30;95.56;100629.59;10438513;27;98144;-83
2023/04/08 16:41:24;;;;;;;12.63;7.23;;;6.10;99.90;;;4.27;95.54;100634.25;10450485;27;96906;-82
2023/04/08 16:46:27;;;;;;;13.73;8.43;;;6.10;99.90;;;4.25;95.85;100644.88;10456909;27;97520;-82
2023/04/08 16:51:30;;;;;;;14.23;8.07;;;6.10;99.90;;;4.18;95.48;100640.22;10453718;27;96884;-82
2023/04/08 16:56:33;;;;;;;13.67;8.07;;;6.00;99.90;;;4.16;95.38;100644.75;10442456;27;97148;-83
2023/04/08 17:01:37;;;;;;;13.13;8.80;;;6.00;99.90;;;4.13;95.22;100651.06;10440822;27;96710;-83
2023/04/08 17:06:41;;;;;;;10.60;7.50;;;5.90;99.90;;;4.07;94.92;100642.81;10477689;27;98143;-83
2023/04/08 17:11:44;;;;;;;10.63;6.67;;;5.90;99.90;;;4.05;95.08;100647.34;10449017;27;96634;-83
2023/04/08 17:16:47;;;;;;;10.53;7.20;;;5.80;99.90;;;4.00;95.21;100655.59;10476806;27;96610;-83
2023/04/08 17:21:51;;;;;;;9.87;7.33;;;5.80;99.90;;;4.00;95.62;100655.59;10433714;27;96543;-83
2023/04/08 17:26:56;;;;;;;13.80;9.70;;;5.80;99.90;;;3.98;95.79;100668.84;10466413;27;96687;-82
2023/04/08 17:31:59;;;;;;;18.47;11.00;;;5.80;99.90;;;3.95;96.05;100669.06;10459209;27;98348;-82
2023/04/08 17:37:04;;;;;;;19.83;11.47;;;5.80;99.90;;;3.92;96.20;100669.31;10484327;27;97274;-82
2023/04/08 17:42:07;;;;;;;18.97;11.77;;;5.80;99.90;;;3.86;96.19;100679.44;10468180;27;98477;-88
2023/04/08 17:47:10;;;;;;;23.60;14.80;;;5.70;99.90;;;3.82;96.83;100680.59;10486821;27;97110;-87
2023/04/08 17:52:13;;;;;;;21.17;13.60;;;5.70;99.90;;;3.75;97.23;100683.69;10480072;27;98131;-87
2023/04/08 17:57:16;;;;;;;16.97;10.47;;;5.60;99.90;;;3.73;97.48;100682.97;10485929;27;97290;-85
2023/04/08 18:02:19;;;;;;;16.13;10.20;;;5.60;99.90;;;3.74;97.94;100687.28;10509306;27;96933;-86
2023/04/08 18:07:22;;;;;;;12.50;7.97;;;5.60;99.90;;;3.69;97.71;100691.19;10530670;27;96529;-85
2023/04/08 18:12:27;;;;;;;13.33;9.27;;;5.60;99.90;;;3.65;98.00;100693.19;10538664;27;98179;-85
2023/04/08 18:17:30;;;;;;;13.17;7.93;;;5.50;99.90;;;3.62;98.35;100700.47;10471978;27;96964;-85
2023/04/08 18:22:33;;;;;;;15.23;10.87;;;5.50;99.90;;;3.59;98.78;100706.78;10477679;27;97393;-87
2023/04/08 18:27:36;;;;;;;19.50;13.23;;;5.40;99.90;;;3.53;98.96;100709.00;10479077;27;96904;-84
2023/04/08 18:32:40;;;;;;;26.00;14.93;;;5.40;99.90;;;3.47;99.23;100711.13;10491725;27;98057;-86
2023/04/08 18:37:43;;;;;;;44.70;22.97;;;5.40;99.90;;;3.42;99.27;100713.25;10499840;27;98277;-84
2023/04/08 18:42:46;;;;;;;27.77;14.10;;;5.30;99.90;;;3.36;99.36;100711.06;10491649;27;97631;-85
2023/04/08 18:47:49;;;;;;;23.00;13.10;;;5.30;99.90;;;3.27;99.49;100719.59;10477936;27;96785;-86
2023/04/08 18:52:52;;;;;;;21.10;11.60;;;5.20;99.90;;;3.20;99.52;100720.97;10473924;27;97003;-88
2023/04/08 18:57:55;;;;;;;20.87;12.30;;;5.10;99.90;;;3.12;99.73;100721.50;10468643;27;96558;-86
2023/04/08 19:02:58;;;;;;;22.13;13.47;;;5.10;99.90;;;3.08;99.71;100732.34;10499693;27;96479;-86
2023/04/08 19:08:02;;;;;;;13.83;8.30;;;5.00;99.90;;;3.09;100.00;100737.47;10469276;27;97008;-86
2023/04/08 19:13:04;;;;;;;10.67;6.13;;;5.00;99.90;;;2.98;100.00;100726.03;10492147;27;97777;-87
2023/04/08 19:18:08;;;;;;;11.07;6.30;;;4.90;99.90;;;2.99;100.00;100727.72;10529428;27;97642;-85
2023/04/08 19:23:12;;;;;;;13.37;9.00;;;4.90;99.90;;;3.00;100.00;100732.00;10500589;27;96647;-86
2023/04/08 19:28:15;;;;;;;13.03;8.33;;;4.90;99.90;;;3.00;100.00;100737.25;10485719;27;97456;-85
2023/04/08 19:33:19;;;;;;;9.93;6.40;;;4.90;99.90;;;2.98;100.00;100736.53;10504416;27;96638;-85
2023/04/08 19:38:24;;;;;;;11.33;7.07;;;4.90;99.90;;;3.01;100.00;100734.56;10520635;27;96691;-86
2023/04/08 19:43:30;;;;;;;16.03;8.17;;;4.90;99.90;;;3.03;100.00;100744.94;10499460;27;96635;-85
2023/04/08 19:48:33;;;;;;;21.60;10.93;;;4.90;99.90;;;3.05;100.00;100750.91;10478535;27;98934;-84
2023/04/08 19:53:36;;;;;;;24.30;10.13;;;5.00;99.90;;;3.06;100.00;100753.47;10524820;27;96542;-85
2023/04/08 19:58:39;;;;;;;31.37;11.93;;;5.00;99.90;;;3.05;100.00;100750.91;10492939;27;96644;-86
2023/04/08 20:03:49;;;;;;;34.03;13.87;;;5.00;99.90;;;2.98;100.00;100741.78;10480407;27;96584;-85
2023/04/08 20:08:53;;;;;;;37.73;14.47;;;4.90;99.90;;;3.04;100.00;100749.25;10486807;27;96565;-90
2023/04/08 20:13:56;;;;;;;27.33;12.00;;;4.90;99.90;;;3.07;100.00;100743.78;10494578;27;97418;-88
2023/04/08 20:18:59;;;;;;;18.53;9.20;;;5.00;99.90;;;3.08;100.00;100746.31;10491120;27;98211;-88
2023/04/08 20:24:02;;;;;;;17.53;8.93;;;5.00;99.90;;;3.13;100.00;100746.00;10519643;27;96577;-87
2023/04/08 20:29:05;;;;;;;27.27;12.07;;;5.10;99.90;;;3.17;100.00;100742.19;10477841;27;96940;-87
2023/04/08 20:34:09;;;;;;;28.13;13.43;;;5.10;99.90;;;3.21;100.00;100754.16;10525037;27;96670;-86
2023/04/08 20:39:12;;;;;;;21.07;10.43;;;5.10;99.90;;;3.21;100.00;100746.28;10478710;27;99631;-86
2023/04/08 20:44:16;;;;;;;21.03;12.43;;;5.10;99.90;;;3.22;100.00;100748.78;10505992;27;97028;-89